sensor_id;sensor_type;location;lat;lon;timestamp;temperature;humidity
16408;DHT22;8313;49.894;8.084;2022-11-04T00:01:49;11.40;99.90
16408;DHT22;8313;49.894;8.084;2022-11-04T00:04:17;11.40;99.90
16408;DHT22;8313;49.894;8.084;2022-11-04T00:06:43;11.40;99.90
16408;DHT22;8313;49.894;8.084;2022-11-04T00:09:12;11.40;99.90
16408;DHT22;8313;49.894;8.084;2022-11-04T00:11:38;11.40;99.90
16408;DHT22;8313;49.894;8.084;2022-11-04T00:14:22;11.40;99.90
16408;DHT22;8313;49.894;8.084;2022-11-04T00:16:48;11.40;99.90
16408;DHT22;8313;49.894;8.084;2022-11-04T00:19:32;11.30;99.90
16408;DHT22;8313;49.894;8.084;2022-11-04T00:22:18;11.30;99.90
16408;DHT22;8313;49.894;8.084;2022-11-04T00:25:02;11.30;99.90
16408;DHT22;8313;49.894;8.084;2022-11-04T00:27:46;11.30;99.90
16408;DHT22;8313;49.894;8.084;2022-11-04T00:30:30;11.30;99.90
16408;DHT22;8313;49.894;8.084;2022-11-04T00:32:56;11.30;99.90
16408;DHT22;8313;49.894;8.084;2022-11-04T00:35:46;11.30;99.90
16408;DHT22;8313;49.894;8.084;2022-11-04T00:38:12;11.30;99.90
16408;DHT22;8313;49.894;8.084;2022-11-04T00:40:37;11.30;99.90
16408;DHT22;8313;49.894;8.084;2022-11-04T00:43:03;11.30;99.90
16408;DHT22;8313;49.894;8.084;2022-11-04T00:45:29;11.30;99.90
16408;DHT22;8313;49.894;8.084;2022-11-04T00:47:54;11.30;99.90
16408;DHT22;8313;49.894;8.084;2022-11-04T00:50:20;11.30;99.90
16408;DHT22;8313;49.894;8.084;2022-11-04T00:52:45;11.30;99.90
16408;DHT22;8313;49.894;8.084;2022-11-04T00:55:11;11.20;99.90
16408;DHT22;8313;49.894;8.084;2022-11-04T00:57:37;11.20;99.90
16408;DHT22;8313;49.894;8.084;2022-11-04T01:00:04;11.10;99.90
16408;DHT22;8313;49.894;8.084;2022-11-04T01:02:29;11.20;99.90
16408;DHT22;8313;49.894;8.084;2022-11-04T01:04:55;11.10;99.90
16408;DHT22;8313;49.894;8.084;2022-11-04T01:07:21;11.10;99.90
16408;DHT22;8313;49.894;8.084;2022-11-04T01:09:48;11.10;99.90
16408;DHT22;8313;49.894;8.084;2022-11-04T01:12:14;11.10;99.90
16408;DHT22;8313;49.894;8.084;2022-11-04T01:14:39;11.00;99.90
16408;DHT22;8313;49.894;8.084;2022-11-04T01:17:05;11.00;99.90
16408;DHT22;8313;49.894;8.084;2022-11-04T01:19:31;10.90;99.90
16408;DHT22;8313;49.894;8.084;2022-11-04T01:21:56;10.90;99.90
16408;DHT22;8313;49.894;8.084;2022-11-04T01:24:22;10.90;99.90
16408;DHT22;8313;49.894;8.084;2022-11-04T01:26:48;10.90;99.90
16408;DHT22;8313;49.894;8.084;2022-11-04T01:29:13;10.80;99.90
16408;DHT22;8313;49.894;8.084;2022-11-04T01:31:39;10.80;99.90
16408;DHT22;8313;49.894;8.084;2022-11-04T01:34:05;10.80;99.90
16408;DHT22;8313;49.894;8.084;2022-11-04T01:36:30;10.80;99.90
16408;DHT22;8313;49.894;8.084;2022-11-04T01:38:56;10.80;99.90
16408;DHT22;8313;49.894;8.084;2022-11-04T01:41:27;10.80;99.90
16408;DHT22;8313;49.894;8.084;2022-11-04T01:46:46;10.70;99.90
16408;DHT22;8313;49.894;8.084;2022-11-04T01:51:42;10.70;99.90
16408;DHT22;8313;49.894;8.084;2022-11-04T01:54:10;10.70;99.90
16408;DHT22;8313;49.894;8.084;2022-11-04T01:56:36;10.70;99.90
16408;DHT22;8313;49.894;8.084;2022-11-04T01:59:07;10.60;99.90
16408;DHT22;8313;49.894;8.084;2022-11-04T02:01:35;10.60;99.90
16408;DHT22;8313;49.894;8.084;2022-11-04T02:04:02;10.60;99.90
16408;DHT22;8313;49.894;8.084;2022-11-04T02:06:47;10.60;99.90
16408;DHT22;8313;49.894;8.084;2022-11-04T02:09:15;10.60;99.90
16408;DHT22;8313;49.894;8.084;2022-11-04T02:11:41;10.50;99.90
16408;DHT22;8313;49.894;8.084;2022-11-04T02:14:25;10.50;99.90
16408;DHT22;8313;49.894;8.084;2022-11-04T02:16:56;10.50;99.90
16408;DHT22;8313;49.894;8.084;2022-11-04T02:22:40;10.40;99.90
16408;DHT22;8313;49.894;8.084;2022-11-04T02:28:02;10.40;99.90
16408;DHT22;8313;49.894;8.084;2022-11-04T02:30:35;10.40;99.90
16408;DHT22;8313;49.894;8.084;2022-11-04T02:33:24;10.30;99.90
16408;DHT22;8313;49.894;8.084;2022-11-04T02:38:36;10.30;99.90
16408;DHT22;8313;49.894;8.084;2022-11-04T02:46:27;10.30;99.90
16408;DHT22;8313;49.894;8.084;2022-11-04T02:49:00;10.20;99.90
16408;DHT22;8313;49.894;8.084;2022-11-04T02:57:18;10.20;99.90
16408;DHT22;8313;49.894;8.084;2022-11-04T02:59:48;10.20;99.90
16408;DHT22;8313;49.894;8.084;2022-11-04T03:02:18;10.10;99.90
16408;DHT22;8313;49.894;8.084;2022-11-04T03:04:50;10.20;99.90
16408;DHT22;8313;49.894;8.084;2022-11-04T03:07:21;10.10;99.90
16408;DHT22;8313;49.894;8.084;2022-11-04T03:09:51;10.10;99.90
16408;DHT22;8313;49.894;8.084;2022-11-04T03:12:22;10.10;99.90
16408;DHT22;8313;49.894;8.084;2022-11-04T03:14:57;10.10;99.90
16408;DHT22;8313;49.894;8.084;2022-11-04T03:17:45;10.00;99.90
16408;DHT22;8313;49.894;8.084;2022-11-04T03:20:21;10.00;99.90
16408;DHT22;8313;49.894;8.084;2022-11-04T03:22:48;10.00;99.90
16408;DHT22;8313;49.894;8.084;2022-11-04T03:25:14;10.00;99.90
16408;DHT22;8313;49.894;8.084;2022-11-04T03:30:43;10.00;99.90
16408;DHT22;8313;49.894;8.084;2022-11-04T03:35:41;10.10;99.90
16408;DHT22;8313;49.894;8.084;2022-11-04T03:38:07;10.00;99.90
16408;DHT22;8313;49.894;8.084;2022-11-04T03:40:32;10.00;99.90
16408;DHT22;8313;49.894;8.084;2022-11-04T03:45:32;10.00;99.90
16408;DHT22;8313;49.894;8.084;2022-11-04T03:47:58;10.10;99.90
16408;DHT22;8313;49.894;8.084;2022-11-04T03:50:33;10.10;99.90
16408;DHT22;8313;49.894;8.084;2022-11-04T03:53:00;10.10;99.90
16408;DHT22;8313;49.894;8.084;2022-11-04T04:00:57;10.00;99.90
16408;DHT22;8313;49.894;8.084;2022-11-04T04:03:29;10.00;99.90
16408;DHT22;8313;49.894;8.084;2022-11-04T04:06:05;10.00;99.90
16408;DHT22;8313;49.894;8.084;2022-11-04T04:08:52;10.00;99.90
16408;DHT22;8313;49.894;8.084;2022-11-04T04:14:06;9.90;99.90
16408;DHT22;8313;49.894;8.084;2022-11-04T04:16:38;9.90;99.90
16408;DHT22;8313;49.894;8.084;2022-11-04T04:19:18;9.90;99.90
16408;DHT22;8313;49.894;8.084;2022-11-04T04:22:00;9.80;99.90
16408;DHT22;8313;49.894;8.084;2022-11-04T04:24:32;9.90;99.90
16408;DHT22;8313;49.894;8.084;2022-11-04T04:27:20;9.90;99.90
16408;DHT22;8313;49.894;8.084;2022-11-04T04:29:57;9.90;99.90
16408;DHT22;8313;49.894;8.084;2022-11-04T04:32:26;9.90;99.90
16408;DHT22;8313;49.894;8.084;2022-11-04T04:34:53;9.90;99.90
16408;DHT22;8313;49.894;8.084;2022-11-04T04:37:40;9.90;99.90
16408;DHT22;8313;49.894;8.084;2022-11-04T04:40:10;9.90;99.90
16408;DHT22;8313;49.894;8.084;2022-11-04T04:42:55;9.90;99.90
16408;DHT22;8313;49.894;8.084;2022-11-04T04:45:41;9.90;99.90
16408;DHT22;8313;49.894;8.084;2022-11-04T04:48:10;10.00;99.90
16408;DHT22;8313;49.894;8.084;2022-11-04T04:50:40;10.00;99.90
16408;DHT22;8313;49.894;8.084;2022-11-04T04:53:06;10.00;99.90
16408;DHT22;8313;49.894;8.084;2022-11-04T04:55:32;9.90;99.90
16408;DHT22;8313;49.894;8.084;2022-11-04T04:57:58;9.90;99.90
16408;DHT22;8313;49.894;8.084;2022-11-04T05:00:24;9.90;99.90
16408;DHT22;8313;49.894;8.084;2022-11-04T05:02:50;9.90;99.90
16408;DHT22;8313;49.894;8.084;2022-11-04T05:05:16;9.90;99.90
16408;DHT22;8313;49.894;8.084;2022-11-04T05:07:42;9.90;99.90
16408;DHT22;8313;49.894;8.084;2022-11-04T05:10:09;10.00;99.90
16408;DHT22;8313;49.894;8.084;2022-11-04T05:12:39;10.00;99.90
16408;DHT22;8313;49.894;8.084;2022-11-04T05:15:23;10.00;99.90
16408;DHT22;8313;49.894;8.084;2022-11-04T05:17:57;10.00;99.90
16408;DHT22;8313;49.894;8.084;2022-11-04T05:20:23;10.10;99.90
16408;DHT22;8313;49.894;8.084;2022-11-04T05:22:49;10.00;99.90
16408;DHT22;8313;49.894;8.084;2022-11-04T05:25:15;10.10;99.90
16408;DHT22;8313;49.894;8.084;2022-11-04T05:27:41;10.10;99.90
16408;DHT22;8313;49.894;8.084;2022-11-04T05:30:07;10.10;99.90
16408;DHT22;8313;49.894;8.084;2022-11-04T05:32:33;10.10;99.90
16408;DHT22;8313;49.894;8.084;2022-11-04T05:34:58;10.10;99.90
16408;DHT22;8313;49.894;8.084;2022-11-04T05:37:24;10.10;99.90
16408;DHT22;8313;49.894;8.084;2022-11-04T05:39:51;10.10;99.90
16408;DHT22;8313;49.894;8.084;2022-11-04T05:42:17;10.10;99.90
16408;DHT22;8313;49.894;8.084;2022-11-04T05:44:42;10.10;99.90
16408;DHT22;8313;49.894;8.084;2022-11-04T05:47:08;10.00;99.90
16408;DHT22;8313;49.894;8.084;2022-11-04T05:49:34;10.00;99.90
16408;DHT22;8313;49.894;8.084;2022-11-04T05:51:59;10.00;99.90
16408;DHT22;8313;49.894;8.084;2022-11-04T05:54:25;10.00;99.90
16408;DHT22;8313;49.894;8.084;2022-11-04T05:56:51;10.00;99.90
16408;DHT22;8313;49.894;8.084;2022-11-04T05:59:17;10.00;99.90
16408;DHT22;8313;49.894;8.084;2022-11-04T06:01:42;10.00;99.90
16408;DHT22;8313;49.894;8.084;2022-11-04T06:04:14;10.00;99.90
16408;DHT22;8313;49.894;8.084;2022-11-04T06:06:40;10.00;99.90
16408;DHT22;8313;49.894;8.084;2022-11-04T06:09:06;10.00;99.90
16408;DHT22;8313;49.894;8.084;2022-11-04T06:11:32;10.00;99.90
16408;DHT22;8313;49.894;8.084;2022-11-04T06:13:58;10.00;99.90
16408;DHT22;8313;49.894;8.084;2022-11-04T06:16:25;10.00;99.90
16408;DHT22;8313;49.894;8.084;2022-11-04T06:18:51;10.00;99.90
16408;DHT22;8313;49.894;8.084;2022-11-04T06:21:22;10.00;99.90
16408;DHT22;8313;49.894;8.084;2022-11-04T06:23:50;10.00;99.90
16408;DHT22;8313;49.894;8.084;2022-11-04T06:26:16;10.00;99.90
16408;DHT22;8313;49.894;8.084;2022-11-04T06:28:42;9.90;99.90
16408;DHT22;8313;49.894;8.084;2022-11-04T06:31:09;9.90;99.90
16408;DHT22;8313;49.894;8.084;2022-11-04T06:33:35;10.00;99.90
16408;DHT22;8313;49.894;8.084;2022-11-04T06:36:03;10.00;99.90
16408;DHT22;8313;49.894;8.084;2022-11-04T06:38:32;10.00;99.90
16408;DHT22;8313;49.894;8.084;2022-11-04T06:40:58;10.00;99.90
16408;DHT22;8313;49.894;8.084;2022-11-04T06:43:24;10.00;99.90
16408;DHT22;8313;49.894;8.084;2022-11-04T06:45:54;10.00;99.90
16408;DHT22;8313;49.894;8.084;2022-11-04T06:48:20;10.00;99.90
16408;DHT22;8313;49.894;8.084;2022-11-04T06:50:45;10.00;99.90
16408;DHT22;8313;49.894;8.084;2022-11-04T06:53:11;10.00;99.90
16408;DHT22;8313;49.894;8.084;2022-11-04T06:55:37;10.10;99.90
16408;DHT22;8313;49.894;8.084;2022-11-04T06:58:02;10.10;99.90
16408;DHT22;8313;49.894;8.084;2022-11-04T07:00:28;10.10;99.90
16408;DHT22;8313;49.894;8.084;2022-11-04T07:02:54;10.00;99.90
16408;DHT22;8313;49.894;8.084;2022-11-04T07:05:19;10.00;99.90
16408;DHT22;8313;49.894;8.084;2022-11-04T07:07:45;10.00;99.90
16408;DHT22;8313;49.894;8.084;2022-11-04T07:10:11;10.00;99.90
16408;DHT22;8313;49.894;8.084;2022-11-04T07:12:36;10.00;99.90
16408;DHT22;8313;49.894;8.084;2022-11-04T07:15:03;10.00;99.90
16408;DHT22;8313;49.894;8.084;2022-11-04T07:17:28;10.10;99.90
16408;DHT22;8313;49.894;8.084;2022-11-04T07:19:54;10.10;99.90
16408;DHT22;8313;49.894;8.084;2022-11-04T07:22:20;10.10;99.90
16408;DHT22;8313;49.894;8.084;2022-11-04T07:24:45;10.10;99.90
16408;DHT22;8313;49.894;8.084;2022-11-04T07:27:11;10.10;99.90
16408;DHT22;8313;49.894;8.084;2022-11-04T07:29:37;10.10;99.90
16408;DHT22;8313;49.894;8.084;2022-11-04T07:32:03;10.10;99.90
16408;DHT22;8313;49.894;8.084;2022-11-04T07:34:28;10.10;99.90
16408;DHT22;8313;49.894;8.084;2022-11-04T07:36:54;10.10;99.90
16408;DHT22;8313;49.894;8.084;2022-11-04T07:39:19;10.10;99.90
16408;DHT22;8313;49.894;8.084;2022-11-04T07:41:45;10.20;99.90
16408;DHT22;8313;49.894;8.084;2022-11-04T07:44:11;10.20;99.90
16408;DHT22;8313;49.894;8.084;2022-11-04T07:46:37;10.20;99.90
16408;DHT22;8313;49.894;8.084;2022-11-04T07:49:03;10.20;99.90
16408;DHT22;8313;49.894;8.084;2022-11-04T07:51:29;10.20;99.90
16408;DHT22;8313;49.894;8.084;2022-11-04T07:53:58;10.20;99.90
16408;DHT22;8313;49.894;8.084;2022-11-04T07:56:24;10.20;99.90
16408;DHT22;8313;49.894;8.084;2022-11-04T07:58:50;10.30;99.90
16408;DHT22;8313;49.894;8.084;2022-11-04T08:01:19;10.30;99.90
16408;DHT22;8313;49.894;8.084;2022-11-04T08:03:45;10.20;99.90
16408;DHT22;8313;49.894;8.084;2022-11-04T08:06:13;10.20;99.90
16408;DHT22;8313;49.894;8.084;2022-11-04T08:08:39;10.30;99.90
16408;DHT22;8313;49.894;8.084;2022-11-04T08:11:18;10.30;99.90
16408;DHT22;8313;49.894;8.084;2022-11-04T08:13:45;10.30;99.90
16408;DHT22;8313;49.894;8.084;2022-11-04T08:16:13;10.30;99.90
16408;DHT22;8313;49.894;8.084;2022-11-04T08:18:40;10.30;99.90
16408;DHT22;8313;49.894;8.084;2022-11-04T08:21:06;10.30;99.90
16408;DHT22;8313;49.894;8.084;2022-11-04T08:23:32;10.30;99.90
16408;DHT22;8313;49.894;8.084;2022-11-04T08:25:59;10.40;99.90
16408;DHT22;8313;49.894;8.084;2022-11-04T08:28:25;10.40;99.90
16408;DHT22;8313;49.894;8.084;2022-11-04T08:30:56;10.40;99.90
16408;DHT22;8313;49.894;8.084;2022-11-04T08:33:23;10.40;99.90
16408;DHT22;8313;49.894;8.084;2022-11-04T08:35:50;10.40;99.90
16408;DHT22;8313;49.894;8.084;2022-11-04T08:38:15;10.40;99.90
16408;DHT22;8313;49.894;8.084;2022-11-04T08:40:41;10.50;99.90
16408;DHT22;8313;49.894;8.084;2022-11-04T08:43:07;10.50;99.90
16408;DHT22;8313;49.894;8.084;2022-11-04T08:45:37;10.50;99.90
16408;DHT22;8313;49.894;8.084;2022-11-04T08:48:02;10.50;99.90
16408;DHT22;8313;49.894;8.084;2022-11-04T08:50:29;10.50;99.90
16408;DHT22;8313;49.894;8.084;2022-11-04T08:52:55;10.50;99.90
16408;DHT22;8313;49.894;8.084;2022-11-04T08:55:20;10.60;99.90
16408;DHT22;8313;49.894;8.084;2022-11-04T08:57:46;10.60;99.90
16408;DHT22;8313;49.894;8.084;2022-11-04T09:00:12;10.60;99.90
16408;DHT22;8313;49.894;8.084;2022-11-04T09:02:38;10.60;99.90
16408;DHT22;8313;49.894;8.084;2022-11-04T09:05:05;10.60;99.90
16408;DHT22;8313;49.894;8.084;2022-11-04T09:07:31;10.60;99.90
16408;DHT22;8313;49.894;8.084;2022-11-04T09:09:57;10.60;99.90
16408;DHT22;8313;49.894;8.084;2022-11-04T09:12:23;10.60;99.90
16408;DHT22;8313;49.894;8.084;2022-11-04T09:14:49;10.60;99.90
16408;DHT22;8313;49.894;8.084;2022-11-04T09:17:14;10.70;99.90
16408;DHT22;8313;49.894;8.084;2022-11-04T09:19:40;10.70;99.90
16408;DHT22;8313;49.894;8.084;2022-11-04T09:22:06;10.70;99.90
16408;DHT22;8313;49.894;8.084;2022-11-04T09:24:32;10.80;99.90
16408;DHT22;8313;49.894;8.084;2022-11-04T09:26:58;10.80;99.90
16408;DHT22;8313;49.894;8.084;2022-11-04T09:29:23;10.90;99.90
16408;DHT22;8313;49.894;8.084;2022-11-04T09:31:49;11.00;99.90
16408;DHT22;8313;49.894;8.084;2022-11-04T09:34:15;11.00;99.90
16408;DHT22;8313;49.894;8.084;2022-11-04T09:36:43;11.10;99.90
16408;DHT22;8313;49.894;8.084;2022-11-04T09:39:09;11.10;99.90
16408;DHT22;8313;49.894;8.084;2022-11-04T09:47:00;11.20;99.90
16408;DHT22;8313;49.894;8.084;2022-11-04T09:49:35;11.20;99.90
16408;DHT22;8313;49.894;8.084;2022-11-04T09:52:12;11.20;99.90
16408;DHT22;8313;49.894;8.084;2022-11-04T09:55:09;11.20;99.90
16408;DHT22;8313;49.894;8.084;2022-11-04T09:57:36;11.20;99.90
16408;DHT22;8313;49.894;8.084;2022-11-04T10:00:03;11.30;99.90
16408;DHT22;8313;49.894;8.084;2022-11-04T10:21:32;11.40;99.90
16408;DHT22;8313;49.894;8.084;2022-11-04T10:27:04;11.40;99.90
16408;DHT22;8313;49.894;8.084;2022-11-04T10:35:23;11.50;99.90
16408;DHT22;8313;49.894;8.084;2022-11-04T10:37:53;11.50;99.90
16408;DHT22;8313;49.894;8.084;2022-11-04T10:40:24;11.50;99.90
16408;DHT22;8313;49.894;8.084;2022-11-04T10:42:52;11.50;99.90
16408;DHT22;8313;49.894;8.084;2022-11-04T10:45:22;11.50;99.90
16408;DHT22;8313;49.894;8.084;2022-11-04T10:47:56;11.50;99.90
16408;DHT22;8313;49.894;8.084;2022-11-04T10:52:54;11.50;99.90
16408;DHT22;8313;49.894;8.084;2022-11-04T10:55:51;11.50;99.90
16408;DHT22;8313;49.894;8.084;2022-11-04T10:58:23;11.50;99.90
16408;DHT22;8313;49.894;8.084;2022-11-04T11:00:50;11.50;99.90
16408;DHT22;8313;49.894;8.084;2022-11-04T11:03:33;11.50;99.90
16408;DHT22;8313;49.894;8.084;2022-11-04T11:06:29;11.60;99.90
16408;DHT22;8313;49.894;8.084;2022-11-04T11:09:20;11.60;99.90
16408;DHT22;8313;49.894;8.084;2022-11-04T11:11:47;11.60;99.90
16408;DHT22;8313;49.894;8.084;2022-11-04T11:16:45;11.70;99.90
16408;DHT22;8313;49.894;8.084;2022-11-04T11:19:15;11.80;99.90
16408;DHT22;8313;49.894;8.084;2022-11-04T11:21:49;11.80;99.90
16408;DHT22;8313;49.894;8.084;2022-11-04T11:24:23;11.80;99.90
16408;DHT22;8313;49.894;8.084;2022-11-04T11:29:26;11.90;99.90
16408;DHT22;8313;49.894;8.084;2022-11-04T11:31:54;11.90;99.90
16408;DHT22;8313;49.894;8.084;2022-11-04T11:34:33;12.00;99.90
16408;DHT22;8313;49.894;8.084;2022-11-04T11:37:02;12.00;99.90
16408;DHT22;8313;49.894;8.084;2022-11-04T11:39:31;12.00;99.90
16408;DHT22;8313;49.894;8.084;2022-11-04T11:42:00;12.10;99.90
16408;DHT22;8313;49.894;8.084;2022-11-04T11:47:20;12.20;99.90
16408;DHT22;8313;49.894;8.084;2022-11-04T11:52:33;12.30;99.90
16408;DHT22;8313;49.894;8.084;2022-11-04T11:55:11;12.30;99.90
16408;DHT22;8313;49.894;8.084;2022-11-04T11:58:06;12.40;99.90
16408;DHT22;8313;49.894;8.084;2022-11-04T12:00:30;12.40;99.90
16408;DHT22;8313;49.894;8.084;2022-11-04T12:05:37;12.50;99.90
16408;DHT22;8313;49.894;8.084;2022-11-04T12:08:36;12.50;99.90
16408;DHT22;8313;49.894;8.084;2022-11-04T12:14:23;12.50;99.90
16408;DHT22;8313;49.894;8.084;2022-11-04T12:22:38;12.50;99.90
16408;DHT22;8313;49.894;8.084;2022-11-04T12:31:19;12.50;99.90
16408;DHT22;8313;49.894;8.084;2022-11-04T12:34:10;12.50;99.90
16408;DHT22;8313;49.894;8.084;2022-11-04T12:50:35;12.50;99.90
16408;DHT22;8313;49.894;8.084;2022-11-04T12:58:52;12.60;99.90
16408;DHT22;8313;49.894;8.084;2022-11-04T13:06:41;12.60;99.90
16408;DHT22;8313;49.894;8.084;2022-11-04T13:09:16;12.70;99.90
16408;DHT22;8313;49.894;8.084;2022-11-04T13:11:53;12.70;99.90
16408;DHT22;8313;49.894;8.084;2022-11-04T13:14:28;12.70;99.90
16408;DHT22;8313;49.894;8.084;2022-11-04T13:17:05;12.70;99.90
16408;DHT22;8313;49.894;8.084;2022-11-04T13:19:37;12.80;99.90
16408;DHT22;8313;49.894;8.084;2022-11-04T13:22:08;12.80;99.90
16408;DHT22;8313;49.894;8.084;2022-11-04T13:24:38;12.90;99.90
16408;DHT22;8313;49.894;8.084;2022-11-04T13:27:15;12.90;99.90
16408;DHT22;8313;49.894;8.084;2022-11-04T13:29:42;12.90;99.90
16408;DHT22;8313;49.894;8.084;2022-11-04T13:35:00;12.90;99.90
16408;DHT22;8313;49.894;8.084;2022-11-04T13:41:07;12.90;99.90
16408;DHT22;8313;49.894;8.084;2022-11-04T13:48:34;12.90;99.90
16408;DHT22;8313;49.894;8.084;2022-11-04T13:51:10;12.90;99.90
16408;DHT22;8313;49.894;8.084;2022-11-04T13:56:36;13.00;99.90
16408;DHT22;8313;49.894;8.084;2022-11-04T13:59:22;13.00;99.90
16408;DHT22;8313;49.894;8.084;2022-11-04T14:02:23;13.00;99.90
16408;DHT22;8313;49.894;8.084;2022-11-04T14:04:50;13.00;99.90
16408;DHT22;8313;49.894;8.084;2022-11-04T14:07:16;13.00;99.90
16408;DHT22;8313;49.894;8.084;2022-11-04T14:15:01;13.10;99.90
16408;DHT22;8313;49.894;8.084;2022-11-04T14:25:38;13.10;99.90
16408;DHT22;8313;49.894;8.084;2022-11-04T14:33:48;13.10;99.90
16408;DHT22;8313;49.894;8.084;2022-11-04T14:36:16;13.10;99.90
16408;DHT22;8313;49.894;8.084;2022-11-04T14:38:54;13.20;99.90
16408;DHT22;8313;49.894;8.084;2022-11-04T14:44:23;13.20;99.90
16408;DHT22;8313;49.894;8.084;2022-11-04T14:46:55;13.20;99.90
16408;DHT22;8313;49.894;8.084;2022-11-04T14:49:43;13.20;99.90
16408;DHT22;8313;49.894;8.084;2022-11-04T14:54:44;13.10;99.90
16408;DHT22;8313;49.894;8.084;2022-11-04T14:59:39;13.20;99.90
16408;DHT22;8313;49.894;8.084;2022-11-04T15:02:15;13.20;99.90
16408;DHT22;8313;49.894;8.084;2022-11-04T15:05:20;13.10;99.90
16408;DHT22;8313;49.894;8.084;2022-11-04T15:07:46;13.10;99.90
16408;DHT22;8313;49.894;8.084;2022-11-04T15:10:29;13.10;99.90
16408;DHT22;8313;49.894;8.084;2022-11-04T15:13:00;13.10;99.90
16408;DHT22;8313;49.894;8.084;2022-11-04T15:18:13;13.10;99.90
16408;DHT22;8313;49.894;8.084;2022-11-04T15:20:46;13.10;99.90
16408;DHT22;8313;49.894;8.084;2022-11-04T15:23:16;13.10;99.90
16408;DHT22;8313;49.894;8.084;2022-11-04T15:25:47;13.10;99.90
16408;DHT22;8313;49.894;8.084;2022-11-04T15:28:26;13.10;99.90
16408;DHT22;8313;49.894;8.084;2022-11-04T15:31:01;13.10;99.90
16408;DHT22;8313;49.894;8.084;2022-11-04T15:33:27;13.10;99.90
16408;DHT22;8313;49.894;8.084;2022-11-04T15:35:55;13.10;99.90
16408;DHT22;8313;49.894;8.084;2022-11-04T15:38:24;13.00;99.90
16408;DHT22;8313;49.894;8.084;2022-11-04T15:40:51;13.00;99.90
16408;DHT22;8313;49.894;8.084;2022-11-04T15:43:17;13.00;99.90
16408;DHT22;8313;49.894;8.084;2022-11-04T15:48:40;13.00;99.90
16408;DHT22;8313;49.894;8.084;2022-11-04T15:51:18;13.00;99.90
16408;DHT22;8313;49.894;8.084;2022-11-04T15:53:57;13.00;99.90
16408;DHT22;8313;49.894;8.084;2022-11-04T15:56:27;13.00;99.90
16408;DHT22;8313;49.894;8.084;2022-11-04T15:58:53;13.00;99.90
16408;DHT22;8313;49.894;8.084;2022-11-04T16:01:21;13.00;99.90
16408;DHT22;8313;49.894;8.084;2022-11-04T16:03:55;13.00;99.90
16408;DHT22;8313;49.894;8.084;2022-11-04T16:09:25;13.00;99.90
16408;DHT22;8313;49.894;8.084;2022-11-04T16:12:13;13.00;99.90
16408;DHT22;8313;49.894;8.084;2022-11-04T16:14:50;12.90;99.90
16408;DHT22;8313;49.894;8.084;2022-11-04T16:17:17;12.90;99.90
16408;DHT22;8313;49.894;8.084;2022-11-04T16:19:58;12.90;99.90
16408;DHT22;8313;49.894;8.084;2022-11-04T16:22:34;12.90;99.90
16408;DHT22;8313;49.894;8.084;2022-11-04T16:25:06;12.90;99.90
16408;DHT22;8313;49.894;8.084;2022-11-04T16:27:35;12.90;99.90
16408;DHT22;8313;49.894;8.084;2022-11-04T16:32:30;12.90;99.90
16408;DHT22;8313;49.894;8.084;2022-11-04T16:35:16;12.90;99.90
16408;DHT22;8313;49.894;8.084;2022-11-04T16:37:43;12.90;99.90
16408;DHT22;8313;49.894;8.084;2022-11-04T16:40:09;12.90;99.90
16408;DHT22;8313;49.894;8.084;2022-11-04T16:42:34;12.90;99.90
16408;DHT22;8313;49.894;8.084;2022-11-04T16:45:02;12.80;99.90
16408;DHT22;8313;49.894;8.084;2022-11-04T16:47:28;12.80;99.90
16408;DHT22;8313;49.894;8.084;2022-11-04T16:49:59;12.80;99.90
16408;DHT22;8313;49.894;8.084;2022-11-04T16:52:26;12.80;99.90
16408;DHT22;8313;49.894;8.084;2022-11-04T16:54:52;12.80;99.90
16408;DHT22;8313;49.894;8.084;2022-11-04T16:57:21;12.80;99.90
16408;DHT22;8313;49.894;8.084;2022-11-04T16:59:48;12.70;99.90
16408;DHT22;8313;49.894;8.084;2022-11-04T17:04:47;12.70;99.90
16408;DHT22;8313;49.894;8.084;2022-11-04T17:07:13;12.70;99.90
16408;DHT22;8313;49.894;8.084;2022-11-04T17:09:38;12.70;99.90
16408;DHT22;8313;49.894;8.084;2022-11-04T17:12:04;12.60;99.90
16408;DHT22;8313;49.894;8.084;2022-11-04T17:14:30;12.60;99.90
16408;DHT22;8313;49.894;8.084;2022-11-04T17:16:56;12.60;99.90
16408;DHT22;8313;49.894;8.084;2022-11-04T17:19:21;12.50;99.90
16408;DHT22;8313;49.894;8.084;2022-11-04T17:21:47;12.50;99.90
16408;DHT22;8313;49.894;8.084;2022-11-04T17:24:13;12.50;99.90
16408;DHT22;8313;49.894;8.084;2022-11-04T17:26:39;12.50;99.90
16408;DHT22;8313;49.894;8.084;2022-11-04T17:29:04;12.50;99.90
16408;DHT22;8313;49.894;8.084;2022-11-04T17:31:30;12.40;99.90
16408;DHT22;8313;49.894;8.084;2022-11-04T17:33:56;12.40;99.90
16408;DHT22;8313;49.894;8.084;2022-11-04T17:36:21;12.40;99.90
16408;DHT22;8313;49.894;8.084;2022-11-04T17:38:47;12.40;99.90
16408;DHT22;8313;49.894;8.084;2022-11-04T17:41:13;12.40;99.90
16408;DHT22;8313;49.894;8.084;2022-11-04T17:43:58;12.40;99.90
16408;DHT22;8313;49.894;8.084;2022-11-04T17:46:27;12.40;99.90
16408;DHT22;8313;49.894;8.084;2022-11-04T17:49:00;12.40;99.90
16408;DHT22;8313;49.894;8.084;2022-11-04T17:51:27;12.40;99.90
16408;DHT22;8313;49.894;8.084;2022-11-04T17:53:53;12.40;99.90
16408;DHT22;8313;49.894;8.084;2022-11-04T17:56:21;12.40;99.90
16408;DHT22;8313;49.894;8.084;2022-11-04T17:58:48;12.40;99.90
16408;DHT22;8313;49.894;8.084;2022-11-04T18:01:16;12.40;99.90
16408;DHT22;8313;49.894;8.084;2022-11-04T18:03:42;12.40;99.90
16408;DHT22;8313;49.894;8.084;2022-11-04T18:06:08;12.40;99.90
16408;DHT22;8313;49.894;8.084;2022-11-04T18:08:34;12.30;99.90
16408;DHT22;8313;49.894;8.084;2022-11-04T18:11:03;12.30;99.90
16408;DHT22;8313;49.894;8.084;2022-11-04T18:13:29;12.30;99.90
16408;DHT22;8313;49.894;8.084;2022-11-04T18:15:55;12.30;99.90
16408;DHT22;8313;49.894;8.084;2022-11-04T18:18:21;12.30;99.90
16408;DHT22;8313;49.894;8.084;2022-11-04T18:20:47;12.30;99.90
16408;DHT22;8313;49.894;8.084;2022-11-04T18:23:13;12.30;99.90
16408;DHT22;8313;49.894;8.084;2022-11-04T18:25:40;12.30;99.90
16408;DHT22;8313;49.894;8.084;2022-11-04T18:28:06;12.30;99.90
16408;DHT22;8313;49.894;8.084;2022-11-04T18:30:31;12.30;99.90
16408;DHT22;8313;49.894;8.084;2022-11-04T18:32:57;12.20;99.90
16408;DHT22;8313;49.894;8.084;2022-11-04T18:35:22;12.20;99.90
16408;DHT22;8313;49.894;8.084;2022-11-04T18:37:48;12.20;99.90
16408;DHT22;8313;49.894;8.084;2022-11-04T18:40:14;12.20;99.90
16408;DHT22;8313;49.894;8.084;2022-11-04T18:42:40;12.20;99.90
16408;DHT22;8313;49.894;8.084;2022-11-04T18:45:06;12.20;99.90
16408;DHT22;8313;49.894;8.084;2022-11-04T18:47:32;12.10;99.90
16408;DHT22;8313;49.894;8.084;2022-11-04T18:49:58;12.10;99.90
16408;DHT22;8313;49.894;8.084;2022-11-04T18:52:23;12.00;99.90
16408;DHT22;8313;49.894;8.084;2022-11-04T18:54:49;12.00;99.90
16408;DHT22;8313;49.894;8.084;2022-11-04T18:57:15;12.00;99.90
16408;DHT22;8313;49.894;8.084;2022-11-04T18:59:40;12.00;99.90
16408;DHT22;8313;49.894;8.084;2022-11-04T19:02:11;11.90;99.90
16408;DHT22;8313;49.894;8.084;2022-11-04T19:04:39;11.90;99.90
16408;DHT22;8313;49.894;8.084;2022-11-04T19:07:05;11.90;99.90
16408;DHT22;8313;49.894;8.084;2022-11-04T19:09:31;11.90;99.90